Time;durP1;ratioP1;P1;durP2;ratioP2;P2;SDS_P1;SDS_P2;PMS_P1;PMS_P2;Temp;Humidity;BMP_temperature;BMP_pressure;BME280_temperature;BME280_humidity;BME280_pressure;Samples;Min_cycle;Max_cycle;Signal;HPM_P1;HPM_P2
2021/11/22 00:03:54;;;;;;;30.82;22.05;;;;;;;8.85;97.65;99944.33;2899962;82;21010;-72
2021/11/22 00:07:56;;;;;;;27.13;21.75;;;;;;;8.82;97.55;99940.56;2899848;82;21033;-72
2021/11/22 00:11:57;;;;;;;39.03;23.45;;;;;;;8.83;97.65;99947.55;2899924;82;20990;-72
2021/11/22 00:15:59;;;;;;;38.20;24.47;;;;;;;8.86;97.40;99944.69;2900035;82;21022;-72
2021/11/22 00:20:04;;;;;;;32.90;21.12;;;;;;;8.92;97.15;99950.81;2899737;82;21034;-72
2021/11/22 00:24:06;;;;;;;30.70;21.20;;;;;;;8.94;97.07;99961.28;2894901;82;21499;-72
2021/11/22 00:28:07;;;;;;;30.50;21.33;;;;;;;8.90;97.25;99963.36;2889016;82;21050;-73
2021/11/22 00:32:10;;;;;;;30.00;20.68;;;;;;;8.90;97.13;99960.70;2773329;85;21102;-73
2021/11/22 00:36:13;;;;;;;28.42;21.52;;;;;;;8.96;96.85;99962.85;2773143;86;21014;-72
2021/11/22 00:40:14;;;;;;;32.00;20.88;;;;;;;9.01;96.46;99967.80;2773220;86;20975;-73
2021/11/22 00:44:16;;;;;;;32.90;19.05;;;;;;;9.00;96.25;99971.42;2773093;86;20976;-73
2021/11/22 00:48:20;;;;;;;26.37;18.45;;;;;;;9.03;96.11;99982.25;2785523;84;21003;-72
2021/11/22 00:52:21;;;;;;;27.48;19.48;;;;;;;9.01;96.15;99983.72;2839897;83;21077;-73
2021/11/22 00:56:23;;;;;;;27.82;18.48;;;;;;;9.04;95.83;99979.95;2840062;83;21355;-73
2021/11/22 01:00:25;;;;;;;29.35;21.15;;;;;;;9.14;95.60;99975.61;2839994;84;21074;-72
2021/11/22 01:04:27;;;;;;;25.92;18.82;;;;;;;9.22;94.77;99986.93;2876218;81;21720;-73
2021/11/22 01:08:29;;;;;;;25.48;18.98;;;;;;;9.09;94.55;99983.93;2939275;80;21305;-72
2021/11/22 01:12:31;;;;;;;22.02;19.23;;;;;;;8.97;95.01;99993.72;2939450;80;21069;-73
2021/11/22 01:16:33;;;;;;;29.90;19.50;;;;;;;8.91;95.33;99998.67;2870748;82;21058;-73
2021/11/22 01:20:35;;;;;;;22.22;16.23;;;;;;;8.89;95.47;99998.80;2870999;83;20995;-72
2021/11/22 01:24:37;;;;;;;24.67;18.77;;;;;;;8.84;95.42;100004.47;2888418;81;21308;-73
2021/11/22 01:28:38;;;;;;;23.40;17.80;;;;;;;8.77;96.10;100011.70;2867562;83;21333;-73
2021/11/22 01:32:44;;;;;;;25.50;17.40;;;;;;;8.68;96.80;100019.89;2910168;81;21035;-72
2021/11/22 01:36:46;;;;;;;21.30;16.55;;;;;;;8.63;97.34;100017.59;2895819;81;21595;-73
2021/11/22 01:40:49;;;;;;;25.30;15.83;;;;;;;8.59;97.87;100017.98;2860246;83;21038;-73
2021/11/22 01:44:50;;;;;;;29.48;19.42;;;;;;;8.64;97.86;100018.45;2860291;83;21074;-73
2021/11/22 01:48:55;;;;;;;35.30;23.10;;;;;;;8.64;97.98;100025.91;2859991;83;21034;-73
2021/11/22 01:52:56;;;;;;;27.82;20.82;;;;;;;8.70;97.74;100026.78;2859851;83;21015;-73
2021/11/22 01:56:59;;;;;;;30.75;22.52;;;;;;;8.72;97.80;100029.30;2860155;83;21046;-73
2021/11/22 02:01:01;;;;;;;36.75;25.77;;;;;;;8.70;97.90;100030.76;2859997;83;21062;-73
2021/11/22 02:05:03;;;;;;;33.13;24.23;;;;;;;8.76;97.73;100037.86;2860095;83;21018;-73
2021/11/22 02:09:06;;;;;;;34.45;23.10;;;;;;;8.74;97.71;100036.64;2860224;83;21038;-73
2021/11/22 02:13:08;;;;;;;24.65;16.70;;;;;;;8.67;98.06;100038.95;2860002;83;21023;-72
2021/11/22 02:17:11;;;;;;;21.55;16.77;;;;;;;8.71;97.83;100044.37;2859877;83;21086;-73
2021/11/22 02:21:14;;;;;;;22.37;16.17;;;;;;;8.77;97.53;100047.50;2859908;83;21026;-73
2021/11/22 02:25:18;;;;;;;21.02;17.00;;;;;;;8.78;97.49;100050.52;2854626;83;21066;-73
2021/11/22 02:29:20;;;;;;;23.70;16.67;;;;;;;8.78;97.62;100057.14;2850764;83;21046;-73
2021/11/22 02:33:24;;;;;;;26.80;16.42;;;;;;;8.73;98.06;100059.33;2850940;83;21330;-74
2021/11/22 02:37:27;;;;;;;16.17;13.25;;;;;;;8.66;98.49;100065.11;2850797;83;20995;-73
2021/11/22 02:41:28;;;;;;;19.32;13.93;;;;;;;8.78;97.74;100062.45;2851157;83;20980;-73
2021/11/22 02:45:30;;;;;;;21.62;14.35;;;;;;;8.95;97.28;100063.80;2832370;82;21058;-73
2021/11/22 02:49:32;;;;;;;22.65;16.05;;;;;;;9.04;96.21;100063.06;2900355;81;21050;-73
2021/11/22 02:53:34;;;;;;;18.30;13.25;;;;;;;9.07;95.61;100071.27;2900190;82;21073;-73
2021/11/22 02:57:36;;;;;;;19.70;14.83;;;;;;;9.00;95.61;100073.06;2900123;82;21023;-74
2021/11/22 03:01:38;;;;;;;20.68;13.80;;;;;;;9.05;95.62;100078.02;2900008;82;21027;-73
2021/11/22 03:05:40;;;;;;;20.43;14.75;;;;;;;9.02;95.59;100077.41;2900167;81;21050;-73
2021/11/22 03:09:42;;;;;;;23.90;13.98;;;;;;;9.00;95.63;100084.17;2900151;82;21059;-73
2021/11/22 03:13:46;;;;;;;22.48;14.73;;;;;;;9.04;95.52;100082.10;2900504;81;21032;-73
2021/11/22 03:17:49;;;;;;;23.65;14.58;;;;;;;9.09;95.43;100079.95;2900311;82;21400;-73
2021/11/22 03:21:52;;;;;;;21.87;14.60;;;;;;;9.13;95.32;100088.02;2853313;82;21059;-73
2021/11/22 03:25:54;;;;;;;22.32;13.93;;;;;;;9.20;94.76;100091.05;2830265;83;21006;-74
2021/11/22 03:29:56;;;;;;;17.85;13.53;;;;;;;9.15;94.42;100091.40;2820663;84;21045;-74
2021/11/22 03:33:58;;;;;;;25.72;14.78;;;;;;;9.17;94.47;100096.09;2817970;84;20978;-74
2021/11/22 03:38:00;;;;;;;15.90;12.98;;;;;;;9.18;94.30;100102.27;2898376;82;21656;-74
2021/11/22 03:42:06;;;;;;;17.27;12.55;;;;;;;9.12;94.15;100111.05;2898596;82;21045;-74
2021/11/22 03:46:06;;;;;;;22.87;15.63;;;;;;;9.06;94.45;100108.89;2897728;81;21034;-74
2021/11/22 03:50:08;;;;;;;18.23;13.62;;;;;;;9.10;94.56;100110.33;2898269;82;21065;-74
2021/11/22 03:54:11;;;;;;;14.28;11.50;;;;;;;9.17;94.37;100117.33;2898141;82;21089;-75
2021/11/22 03:58:13;;;;;;;16.90;12.68;;;;;;;9.14;93.48;100122.42;2898130;82;21006;-74
2021/11/22 04:02:15;;;;;;;22.75;14.35;;;;;;;9.21;93.63;100119.27;2927709;80;21080;-75
2021/11/22 04:06:16;;;;;;;17.77;14.03;;;;;;;9.26;92.87;100124.58;2951322;80;20940;-72
2021/11/22 04:10:18;;;;;;;16.65;12.35;;;;;;;9.11;92.57;100121.80;2951755;80;21077;-72
2021/11/22 04:14:20;;;;;;;16.17;13.18;;;;;;;8.91;93.37;100129.51;2951325;80;21022;-73
2021/11/22 04:18:21;;;;;;;16.77;13.60;;;;;;;8.75;94.51;100135.16;2920058;80;20963;-72
2021/11/22 04:22:23;;;;;;;24.27;15.38;;;;;;;8.65;95.40;100139.00;2941249;80;20983;-73
2021/11/22 04:26:25;;;;;;;21.33;12.75;;;;;;;8.66;95.41;100132.73;2899928;82;21037;-75
2021/11/22 04:30:30;;;;;;;17.20;13.28;;;;;;;8.70;94.92;100141.28;2900205;82;21042;-74
2021/11/22 04:34:31;;;;;;;20.77;13.38;;;;;;;8.60;94.28;100155.72;2910906;80;21029;-75
2021/11/22 04:38:34;;;;;;;24.27;14.87;;;;;;;8.42;94.79;100154.78;2951131;80;21029;-74
2021/11/22 04:42:36;;;;;;;20.30;14.50;;;;;;;8.35;95.59;100162.84;2951477;79;21057;-74
2021/11/22 04:46:37;;;;;;;24.25;14.95;;;;;;;8.32;95.28;100169.70;2950872;80;20982;-74
2021/11/22 04:50:39;;;;;;;22.25;16.25;;;;;;;8.28;95.05;100173.55;2930913;80;20986;-73
2021/11/22 04:54:41;;;;;;;20.97;14.07;;;;;;;8.13;96.00;100179.00;2900792;82;21092;-73
2021/11/22 04:58:43;;;;;;;18.85;13.78;;;;;;;7.97;97.18;100189.03;2900374;81;21079;-74
2021/11/22 05:02:46;;;;;;;20.52;15.03;;;;;;;7.96;97.23;100195.28;2907154;80;21049;-73
2021/11/22 05:06:47;;;;;;;21.57;15.00;;;;;;;7.92;97.36;100198.62;2945426;80;21010;-73
2021/11/22 05:10:49;;;;;;;20.50;14.28;;;;;;;7.95;97.31;100204.19;2941185;80;21030;-72
2021/11/22 05:14:51;;;;;;;24.63;14.45;;;;;;;8.02;97.46;100212.55;2944448;80;21029;-72
2021/11/22 05:18:52;;;;;;;21.62;14.25;;;;;;;7.97;98.83;100222.14;2931805;80;20963;-72
2021/11/22 05:22:56;;;;;;;20.27;12.90;;;;;;;7.94;100.00;100227.66;2951941;80;21045;-73
2021/11/22 05:26:59;;;;;;;18.15;14.13;;;;;;;8.03;99.57;100232.77;2925494;80;21029;-76
2021/11/22 05:31:01;;;;;;;21.37;12.75;;;;;;;7.99;99.16;100232.14;2918860;80;20959;-73
2021/11/22 05:35:02;;;;;;;18.57;12.75;;;;;;;8.08;98.58;100235.93;2950104;80;21026;-73
2021/11/22 05:39:06;;;;;;;23.80;13.98;;;;;;;8.12;97.96;100250.17;2951736;80;21037;-73
2021/11/22 05:43:08;;;;;;;21.10;14.68;;;;;;;8.09;97.68;100258.35;2930806;80;21037;-72
2021/11/22 05:47:12;;;;;;;21.25;14.18;;;;;;;8.06;97.99;100255.93;2899907;82;21042;-73
2021/11/22 05:51:14;;;;;;;19.67;13.20;;;;;;;8.02;98.03;100258.41;2900167;82;21006;-72
2021/11/22 05:55:22;;;;;;;15.65;11.10;;;;;;;8.08;97.90;100261.09;2900421;81;21053;-73
2021/11/22 05:59:20;;;;;;;19.10;13.00;;;;;;;8.06;97.83;100269.17;2898965;81;21062;-72
2021/11/22 06:03:22;;;;;;;21.02;13.98;;;;;;;8.15;97.76;100273.80;2900574;82;21002;-72
2021/11/22 06:07:23;;;;;;;24.67;13.38;;;;;;;8.25;97.42;100279.28;2900312;82;20975;-72
2021/11/22 06:11:26;;;;;;;25.12;14.98;;;;;;;8.31;96.63;100285.95;2900140;82;20979;-72
2021/11/22 06:15:28;;;;;;;18.77;12.98;;;;;;;8.37;96.25;100295.27;2900181;81;20959;-72
2021/11/22 06:19:29;;;;;;;30.23;16.37;;;;;;;8.46;95.94;100300.38;2900101;82;21037;-72
2021/11/22 06:23:32;;;;;;;16.25;12.78;;;;;;;8.53;95.45;100301.64;2900085;80;21006;-72
2021/11/22 06:27:34;;;;;;;26.87;17.57;;;;;;;8.48;95.35;100310.39;2899742;82;21034;-72
2021/11/22 06:31:37;;;;;;;28.73;18.32;;;;;;;8.57;95.12;100324.31;2874357;82;40026;-72
2021/11/22 06:35:38;;;;;;;26.80;16.82;;;;;;;8.48;94.39;100330.27;2900055;82;21046;-72
2021/11/22 06:39:41;;;;;;;28.25;18.07;;;;;;;8.48;94.01;100338.22;2900048;82;21073;-72
2021/11/22 06:43:42;;;;;;;26.62;16.00;;;;;;;8.41;93.58;100343.95;2899901;82;21045;-72
2021/11/22 06:47:44;;;;;;;28.25;17.80;;;;;;;8.43;93.33;100350.47;2900122;82;20935;-71
2021/11/22 06:51:48;;;;;;;25.20;14.70;;;;;;;8.46;93.28;100365.33;2900032;82;21046;-72
2021/11/22 06:55:50;;;;;;;24.47;15.95;;;;;;;8.44;93.00;100366.25;2899822;82;20935;-72
2021/11/22 06:59:52;;;;;;;21.02;14.20;;;;;;;8.48;92.91;100379.31;2900149;82;21045;-72
2021/11/22 07:03:54;;;;;;;23.73;15.28;;;;;;;8.50;92.52;100378.75;2900220;82;21025;-71
2021/11/22 07:07:55;;;;;;;25.20;15.98;;;;;;;8.43;92.42;100385.77;2900141;82;21013;-72
2021/11/22 07:11:57;;;;;;;21.90;15.30;;;;;;;8.46;92.32;100385.21;2900167;82;21073;-73
2021/11/22 07:15:59;;;;;;;32.95;15.38;;;;;;;8.52;92.35;100389.59;2900348;82;21018;-72
2021/11/22 07:20:02;;;;;;;21.97;14.53;;;;;;;8.56;92.07;100398.19;2898906;82;21061;-72
2021/11/22 07:24:05;;;;;;;22.75;17.10;;;;;;;8.52;92.28;100397.55;2900155;82;21022;-72
2021/11/22 07:28:07;;;;;;;22.62;14.23;;;;;;;8.48;92.55;100400.03;2889316;82;21030;-71
2021/11/22 07:32:11;;;;;;;17.95;13.58;;;;;;;8.48;92.79;100407.15;2889178;82;21035;-72
2021/11/22 07:36:12;;;;;;;22.22;15.40;;;;;;;8.57;92.63;100413.14;2889241;82;21046;-72
2021/11/22 07:40:16;;;;;;;22.98;14.45;;;;;;;8.60;92.26;100414.24;2889042;82;21073;-72
2021/11/22 07:44:17;;;;;;;20.70;13.05;;;;;;;8.66;92.00;100416.94;2889423;82;20987;-72
2021/11/22 07:48:19;;;;;;;27.15;16.80;;;;;;;8.55;91.94;100421.69;2888874;82;21511;-71
2021/11/22 07:52:22;;;;;;;19.20;13.35;;;;;;;8.52;92.51;100425.88;2888686;82;21038;-72
2021/11/22 07:56:24;;;;;;;30.72;16.60;;;;;;;8.65;92.69;100435.13;2888858;82;21085;-72
2021/11/22 08:00:28;;;;;;;18.15;10.65;;;;;;;8.43;93.27;100433.48;2888450;82;21058;-71
2021/11/22 08:04:30;;;;;;;18.98;13.70;;;;;;;8.49;91.88;100445.47;2822713;83;21010;-72
2021/11/22 08:08:34;;;;;;;26.35;12.18;;;;;;;8.64;92.67;100449.35;2822966;84;21054;-72
2021/11/22 08:12:38;;;;;;;20.25;13.55;;;;;;;8.68;92.31;100448.17;2822740;83;20956;-71
2021/11/22 08:16:38;;;;;;;16.00;12.63;;;;;;;8.80;92.12;100459.23;2822710;82;21054;-71
2021/11/22 08:20:40;;;;;;;17.45;11.93;;;;;;;8.87;91.18;100460.97;2823065;82;21010;-71
2021/11/22 08:24:42;;;;;;;18.25;12.53;;;;;;;8.85;92.06;100457.59;2823128;82;21078;-71
2021/11/22 08:28:43;;;;;;;19.25;13.20;;;;;;;8.89;92.26;100463.03;2831930;84;21031;-71
2021/11/22 08:32:53;;;;;;;19.80;11.30;;;;;;;8.94;92.33;100474.16;2831624;84;20992;-71
2021/11/22 08:36:51;;;;;;;17.67;12.35;;;;;;;9.04;92.57;100477.45;2830742;84;21075;-71
2021/11/22 08:40:55;;;;;;;17.75;11.38;;;;;;;8.94;92.28;100484.77;2831151;84;21000;-71
2021/11/22 08:44:57;;;;;;;19.42;12.93;;;;;;;8.81;92.46;100491.44;2831641;84;21015;-71
2021/11/22 08:48:59;;;;;;;14.73;11.43;;;;;;;8.73;92.26;100499.56;2831812;83;21019;-71
2021/11/22 08:53:01;;;;;;;23.47;11.88;;;;;;;8.63;93.42;100504.67;2831692;83;21027;-70
2021/11/22 08:57:07;;;;;;;17.42;11.57;;;;;;;8.63;93.26;100513.45;2831683;83;21059;-71
2021/11/22 09:01:09;;;;;;;16.02;11.53;;;;;;;8.76;93.46;100513.94;2831565;84;20980;-71
2021/11/22 09:05:11;;;;;;;17.80;11.60;;;;;;;8.87;92.50;100516.69;2831709;84;21051;-71
2021/11/22 09:09:13;;;;;;;22.70;11.30;;;;;;;9.04;92.73;100514.60;2831810;84;21051;-71
2021/11/22 09:13:17;;;;;;;21.55;14.15;;;;;;;9.20;91.69;100525.81;2831550;84;21050;-71
2021/11/22 09:17:19;;;;;;;15.38;12.45;;;;;;;9.35;91.63;100527.86;2832079;83;21000;-71
2021/11/22 09:21:20;;;;;;;17.42;12.10;;;;;;;9.45;89.65;100525.84;2831849;84;21035;-71
2021/11/22 09:25:22;;;;;;;15.95;11.65;;;;;;;9.37;89.25;100531.24;2832909;83;21039;-71
2021/11/22 09:29:24;;;;;;;13.38;10.08;;;;;;;9.41;88.96;100539.81;2841648;84;21011;-71
2021/11/22 09:33:26;;;;;;;13.30;8.88;;;;;;;9.38;88.03;100546.67;2841501;82;21372;-74
2021/11/22 09:37:27;;;;;;;13.28;8.80;;;;;;;9.18;87.67;100546.81;2841853;82;21011;-72
2021/11/22 09:41:30;;;;;;;12.65;8.98;;;;;;;8.96;89.05;100550.51;2841287;84;21015;-74
2021/11/22 09:45:32;;;;;;;20.43;10.55;;;;;;;8.91;89.66;100566.37;2841469;82;20999;-75
2021/11/22 09:49:33;;;;;;;13.98;10.03;;;;;;;8.84;90.75;100557.99;2841496;82;21007;-75
2021/11/22 09:53:36;;;;;;;13.98;9.08;;;;;;;8.76;91.42;100568.30;2841401;82;21055;-76
2021/11/22 09:57:39;;;;;;;11.35;6.25;;;;;;;8.70;91.41;100569.11;2841382;84;21054;-77
2021/11/22 10:01:40;;;;;;;14.35;9.50;;;;;;;8.57;91.83;100569.13;2841064;84;21042;-77
2021/11/22 10:05:43;;;;;;;16.95;8.68;;;;;;;8.51;92.93;100568.19;2841332;84;21018;-76
2021/11/22 10:09:47;;;;;;;15.05;9.55;;;;;;;8.46;93.82;100574.77;2841054;82;21011;-75
2021/11/22 10:13:50;;;;;;;18.30;10.78;;;;;;;8.36;93.89;100585.14;2841229;82;20999;-75
2021/11/22 10:17:51;;;;;;;16.45;9.68;;;;;;;8.28;93.67;100589.14;2841595;84;21038;-76
2021/11/22 10:21:53;;;;;;;17.17;9.03;;;;;;;8.17;92.91;100584.19;2841090;82;21011;-78
2021/11/22 10:25:58;;;;;;;15.15;10.05;;;;;;;8.18;93.28;100595.16;2844526;83;20952;-79
2021/11/22 10:30:26;;;;;;;11.83;8.35;;;;;;;8.17;92.69;100588.16;2855411;83;21054;-80
2021/11/22 10:34:39;;;;;;;12.55;7.42;;;;;;;8.20;92.58;100594.58;2804828;85;21055;-80
2021/11/22 10:38:45;;;;;;;17.67;10.03;;;;;;;8.03;91.92;100600.52;2851372;83;21041;-78
2021/11/22 10:42:47;;;;;;;10.50;7.67;;;;;;;7.95;92.37;100593.57;2851954;83;21100;-78
2021/11/22 10:46:57;;;;;;;15.88;10.15;;;;;;;7.84;92.86;100595.60;2851704;83;20993;-77
2021/11/22 10:51:16;;;;;;;15.65;8.68;;;;;;;7.95;94.17;100593.08;2819344;84;21006;-77
2021/11/22 10:55:18;;;;;;;16.32;10.58;;;;;;;8.04;94.24;100588.97;2852289;83;21066;-76
2021/11/22 10:59:23;;;;;;;16.57;9.85;;;;;;;8.10;93.47;100597.00;2852049;83;21041;-77
2021/11/22 11:03:28;;;;;;;12.97;9.20;;;;;;;8.10;92.14;100609.78;2819826;84;21084;-77
2021/11/22 11:07:30;;;;;;;16.60;10.93;;;;;;;8.09;92.89;100605.44;2854665;83;21034;-78
2021/11/22 11:11:32;;;;;;;18.20;11.50;;;;;;;8.15;92.64;100610.31;2851923;83;21049;-77
2021/11/22 11:15:34;;;;;;;12.18;9.53;;;;;;;8.19;93.14;100618.92;2852009;83;20993;-77
2021/11/22 11:19:38;;;;;;;13.35;10.58;;;;;;;8.29;93.14;100619.16;2819727;84;20995;-78
2021/11/22 11:23:40;;;;;;;17.45;10.15;;;;;;;8.33;92.22;100626.41;2901651;80;21030;-78
2021/11/22 11:27:45;;;;;;;20.30;11.70;;;;;;;8.26;91.58;100625.50;2901356;82;21065;-78
2021/11/22 11:31:47;;;;;;;20.10;11.93;;;;;;;8.26;91.95;100633.95;2901730;81;21109;-79
2021/11/22 11:35:50;;;;;;;17.85;12.85;;;;;;;8.24;90.90;100639.80;2901067;81;21563;-79
2021/11/22 11:40:25;;;;;;;16.77;13.93;;;;;;;8.29;91.13;100627.11;2901052;82;20994;-80
2021/11/22 11:44:59;;;;;;;15.13;12.13;;;;;;;8.39;91.88;100632.64;2901274;81;21595;-78
2021/11/22 11:49:12;;;;;;;17.23;12.10;;;;;;;8.46;90.60;100629.94;2900867;82;21079;-80
2021/11/22 11:53:17;;;;;;;17.85;10.85;;;;;;;8.37;89.38;100635.38;2901178;82;20987;-79
2021/11/22 11:57:22;;;;;;;12.70;9.37;;;;;;;8.27;89.15;100641.78;2901672;80;21038;-79
2021/11/22 12:01:24;;;;;;;12.05;9.00;;;;;;;8.10;88.63;100641.58;2901697;82;21030;-78
2021/11/22 12:05:45;;;;;;;13.70;10.90;;;;;;;8.03;88.05;100653.52;2901107;81;21124;-78
2021/11/22 12:09:47;;;;;;;21.17;14.15;;;;;;;8.07;89.58;100648.41;2900924;82;21014;-77
2021/11/22 12:13:53;;;;;;;18.55;11.60;;;;;;;8.00;89.15;100667.83;2901056;82;21022;-76
2021/11/22 12:18:02;;;;;;;16.90;12.98;;;;;;;7.98;89.87;100669.73;2901422;82;21034;-78
2021/11/22 12:22:11;;;;;;;19.87;12.28;;;;;;;7.95;90.28;100669.07;2901036;82;21097;-77
2021/11/22 12:26:18;;;;;;;17.65;10.30;;;;;;;7.96;90.63;100672.95;2874444;81;21019;-77
2021/11/22 12:30:35;;;;;;;10.85;7.78;;;;;;;8.02;90.06;100683.61;2822129;84;21039;-76
2021/11/22 12:34:36;;;;;;;10.78;7.87;;;;;;;7.93;86.45;100686.38;2823093;84;21058;-75
2021/11/22 12:38:45;;;;;;;9.80;7.50;;;;;;;7.94;86.84;100701.80;2822792;84;21006;-75
2021/11/22 12:42:54;;;;;;;12.10;7.22;;;;;;;7.91;87.47;100702.01;2823265;84;21610;-74
2021/11/22 12:46:58;;;;;;;11.05;8.00;;;;;;;7.92;86.92;100695.77;2822137;83;21042;-75
2021/11/22 12:51:04;;;;;;;11.38;8.10;;;;;;;7.92;86.47;100712.48;2822889;84;20987;-76
2021/11/22 12:55:15;;;;;;;;;;;;;;;7.82;85.44;100703.45;2825275;84;20991;-75
2021/11/22 12:59:22;;;;;;;12.95;8.43;;;;;;;7.78;85.14;100712.05;2888524;82;20161;-73
2021/11/22 13:03:24;;;;;;;14.35;9.70;;;;;;;7.75;86.43;100716.68;2889885;82;21077;-75
2021/11/22 13:07:40;;;;;;;12.28;8.63;;;;;;;7.81;86.65;100720.28;2889341;82;21006;-75
2021/11/22 13:11:51;;;;;;;12.23;8.78;;;;;;;7.81;86.66;100725.58;2889679;82;21109;-73
2021/11/22 13:15:57;;;;;;;10.40;8.48;;;;;;;7.82;85.51;100720.17;2823245;83;21986;-74
2021/11/22 13:19:59;;;;;;;11.28;7.67;;;;;;;7.87;86.46;100725.19;2823006;84;21018;-73
2021/11/22 13:24:09;;;;;;;9.60;6.30;;;;;;;7.92;86.49;100735.50;2823178;84;21273;-73
2021/11/22 13:28:17;;;;;;;10.58;5.62;;;;;;;7.91;83.94;100733.80;2827442;83;21008;-72
2021/11/22 13:32:19;;;;;;;8.75;5.37;;;;;;;7.93;83.66;100735.87;2832356;83;21086;-72
2021/11/22 13:36:34;;;;;;;8.50;4.70;;;;;;;7.98;84.24;100737.74;2832046;83;20991;-72
2021/11/22 13:40:36;;;;;;;8.55;5.55;;;;;;;7.99;81.92;100740.77;2832356;84;20999;-74
2021/11/22 13:44:55;;;;;;;5.83;4.47;;;;;;;8.02;81.45;100738.41;2832260;83;21074;-72
2021/11/22 13:48:59;;;;;;;7.10;5.30;;;;;;;8.06;82.33;100749.18;2830316;84;21039;-73
2021/11/22 13:53:01;;;;;;;8.50;5.05;;;;;;;8.09;82.74;100754.28;2831947;84;21916;-74
2021/11/22 13:57:07;;;;;;;8.40;5.50;;;;;;;8.08;83.80;100762.72;2831605;84;21019;-73
2021/11/22 14:01:10;;;;;;;6.47;5.23;;;;;;;8.04;83.64;100767.81;2831391;84;20992;-72
2021/11/22 14:05:12;;;;;;;5.25;4.53;;;;;;;8.02;83.29;100771.03;2831357;84;21070;-72
2021/11/22 14:09:16;;;;;;;5.75;4.42;;;;;;;7.82;82.69;100774.95;2831076;83;20987;-74
2021/11/22 14:13:19;;;;;;;8.60;4.90;;;;;;;7.70;83.19;100776.58;2831610;83;21070;-73
2021/11/22 14:17:23;;;;;;;4.22;3.65;;;;;;;7.60;83.16;100780.72;2831775;84;21011;-73
2021/11/22 14:21:32;;;;;;;6.92;4.58;;;;;;;7.54;81.11;100786.78;2831842;83;21039;-72
2021/11/22 14:25:35;;;;;;;11.18;3.80;;;;;;;7.49;80.39;100791.97;2831404;83;21034;-72
2021/11/22 14:29:37;;;;;;;6.42;3.42;;;;;;;7.56;81.62;100803.42;2839314;83;21041;-73
2021/11/22 14:33:39;;;;;;;5.00;4.00;;;;;;;7.54;80.22;100801.34;2841221;84;21003;-73
2021/11/22 14:37:43;;;;;;;4.95;3.72;;;;;;;7.50;79.67;100805.58;2841242;84;21018;-71
2021/11/22 14:41:48;;;;;;;4.92;3.37;;;;;;;7.43;80.19;100810.39;2841305;83;21023;-69
2021/11/22 14:45:53;;;;;;;7.90;5.03;;;;;;;7.46;81.36;100820.79;2841359;84;21055;-71
2021/11/22 14:49:54;;;;;;;5.90;4.22;;;;;;;7.41;81.85;100825.06;2841363;84;21283;-67
2021/11/22 14:54:07;;;;;;;11.60;5.25;;;;;;;7.37;81.77;100827.97;2841400;82;21027;-69
2021/11/22 14:58:09;;;;;;;7.60;4.83;;;;;;;7.38;81.29;100833.19;2841510;84;21050;-72
2021/11/22 15:02:15;;;;;;;5.00;4.42;;;;;;;7.32;81.53;100837.50;2840134;84;21000;-71
2021/11/22 15:06:33;;;;;;;9.73;5.58;;;;;;;7.33;81.86;100841.02;2839641;83;21043;-69
2021/11/22 15:10:35;;;;;;;6.58;5.30;;;;;;;7.33;82.17;100851.60;2838820;83;21058;-72
2021/11/22 15:14:56;;;;;;;6.67;4.67;;;;;;;7.32;81.93;100859.16;2777973;85;21058;-69
2021/11/22 15:18:57;;;;;;;8.50;4.35;;;;;;;7.21;82.39;100862.44;2834062;84;20991;-72
2021/11/22 15:22:59;;;;;;;5.22;4.72;;;;;;;7.09;83.46;100871.95;2834686;84;21717;-69
2021/11/22 15:27:03;;;;;;;11.30;6.50;;;;;;;7.05;84.27;100869.94;2828894;83;21020;-68
2021/11/22 15:31:07;;;;;;;11.68;8.03;;;;;;;7.06;84.67;100870.78;2788461;84;21015;-72
2021/11/22 15:35:10;;;;;;;7.15;5.75;;;;;;;6.99;85.19;100879.08;2788405;84;21506;-69
2021/11/22 15:39:11;;;;;;;31.00;17.67;;;;;;;6.93;84.69;100887.38;2788238;85;21071;-67
2021/11/22 15:43:13;;;;;;;15.98;10.03;;;;;;;7.00;84.51;100894.49;2829198;83;21095;-70
2021/11/22 15:47:17;;;;;;;9.38;6.97;;;;;;;6.94;84.27;100894.82;2872186;83;20999;-69
2021/11/22 15:51:19;;;;;;;17.37;9.78;;;;;;;6.98;83.78;100899.86;2872042;83;21065;-70
2021/11/22 15:55:21;;;;;;;17.52;8.18;;;;;;;6.98;83.20;100901.18;2872527;82;21023;-73
2021/11/22 15:59:22;;;;;;;13.60;7.90;;;;;;;6.93;82.54;100899.27;2872209;82;21070;-70
2021/11/22 16:03:24;;;;;;;9.13;7.22;;;;;;;6.90;82.69;100908.71;2872449;83;20986;-69
2021/11/22 16:07:27;;;;;;;9.20;6.60;;;;;;;7.00;82.63;100907.23;2872490;82;20982;-70
2021/11/22 16:11:29;;;;;;;5.75;4.85;;;;;;;6.86;82.31;100925.66;2872392;82;21045;-69
2021/11/22 16:15:30;;;;;;;9.88;5.67;;;;;;;6.93;82.73;100920.44;2872585;82;21014;-70
2021/11/22 16:19:32;;;;;;;10.28;4.85;;;;;;;6.87;82.81;100924.73;2872509;83;20970;-70
2021/11/22 16:23:34;;;;;;;5.00;3.85;;;;;;;6.81;82.71;100927.72;2872140;83;21033;-71
2021/11/22 16:27:35;;;;;;;3.37;2.87;;;;;;;6.75;82.72;100922.78;2882366;81;21054;-70
2021/11/22 16:31:37;;;;;;;4.03;2.60;;;;;;;6.85;82.08;100937.19;2931733;81;21011;-70
2021/11/22 16:35:39;;;;;;;2.62;2.25;;;;;;;6.81;80.20;100934.34;2916109;80;21089;-72
2021/11/22 16:39:42;;;;;;;3.17;2.67;;;;;;;6.76;79.55;100945.64;2909940;81;21038;-72
2021/11/22 16:43:45;;;;;;;6.85;3.33;;;;;;;6.76;78.35;100942.52;2910212;82;21533;-68
2021/11/22 16:47:47;;;;;;;5.75;2.40;;;;;;;6.84;76.87;100946.06;2910344;81;21014;-71
2021/11/22 16:51:50;;;;;;;4.40;2.87;;;;;;;6.78;76.49;100953.02;2909917;82;21038;-69
2021/11/22 16:55:53;;;;;;;11.80;3.15;;;;;;;6.78;75.21;100961.83;2910146;82;21403;-70
2021/11/22 16:59:56;;;;;;;5.28;2.00;;;;;;;6.75;74.94;100966.41;2910034;82;21018;-69
2021/11/22 17:03:58;;;;;;;3.17;1.72;;;;;;;6.70;74.09;100983.39;2909795;81;20987;-68
2021/11/22 17:08:03;;;;;;;5.42;2.33;;;;;;;6.63;73.62;100989.09;2910492;82;21014;-68
2021/11/22 17:12:10;;;;;;;4.67;2.17;;;;;;;6.63;74.64;100987.28;2910501;82;21066;-68
2021/11/22 17:16:15;;;;;;;5.08;3.37;;;;;;;6.65;75.28;100989.37;2910675;81;21663;-72
2021/11/22 17:20:19;;;;;;;4.70;2.83;;;;;;;6.70;74.92;100992.64;2910295;81;21046;-69
2021/11/22 17:24:23;;;;;;;5.78;4.42;;;;;;;6.67;74.91;100995.91;2909806;80;21989;-69
2021/11/22 17:28:28;;;;;;;25.25;15.68;;;;;;;6.69;74.66;100994.04;2903396;81;21110;-69
2021/11/22 17:32:32;;;;;;;31.80;16.62;;;;;;;6.62;74.30;100998.80;2889192;82;21047;-73
2021/11/22 17:36:35;;;;;;;22.32;13.70;;;;;;;6.63;74.74;101003.63;2888403;82;21017;-73
2021/11/22 17:40:38;;;;;;;13.53;7.80;;;;;;;6.66;75.77;101004.78;2888981;82;21616;-70
2021/11/22 17:44:44;;;;;;;6.12;4.45;;;;;;;6.74;76.22;101005.70;2817146;84;20985;-70
2021/11/22 17:48:44;;;;;;;3.40;3.05;;;;;;;6.76;76.05;101008.62;2816911;84;21080;-71
2021/11/22 17:52:48;;;;;;;8.15;5.55;;;;;;;6.82;77.34;101018.02;2816901;84;20998;-71
2021/11/22 17:56:50;;;;;;;7.12;3.77;;;;;;;6.78;77.47;101017.35;2816963;84;21056;-72
2021/11/22 18:00:52;;;;;;;6.37;3.12;;;;;;;6.74;77.76;101014.95;2816787;84;21044;-69
2021/11/22 18:04:54;;;;;;;4.15;2.22;;;;;;;6.60;76.75;101020.50;2816596;84;21036;-70
2021/11/22 18:08:56;;;;;;;7.37;3.72;;;;;;;6.56;77.11;101025.58;2817096;84;21450;-70
2021/11/22 18:12:57;;;;;;;28.75;15.00;;;;;;;6.54;76.95;101025.64;2816882;84;21028;-69
2021/11/22 18:17:01;;;;;;;26.90;12.53;;;;;;;6.42;73.15;101030.27;2817233;84;21020;-71
2021/11/22 18:21:04;;;;;;;13.70;9.88;;;;;;;6.40;70.96;101032.14;2817133;84;21005;-69
2021/11/22 18:25:08;;;;;;;14.95;8.48;;;;;;;6.38;72.13;101045.42;2816980;84;21011;-71
2021/11/22 18:29:11;;;;;;;29.30;11.80;;;;;;;6.31;72.18;101047.14;2789751;84;21089;-69
2021/11/22 18:33:13;;;;;;;22.80;10.38;;;;;;;6.34;72.97;101057.09;2852863;83;21115;-72
2021/11/22 18:37:15;;;;;;;18.25;9.10;;;;;;;6.33;73.02;101058.48;2839685;84;20985;-70
2021/11/22 18:41:17;;;;;;;13.90;8.98;;;;;;;6.34;73.63;101064.16;2839623;84;21000;-71
2021/11/22 18:45:18;;;;;;;26.90;17.85;;;;;;;6.29;73.78;101065.73;2839726;84;21576;-71
2021/11/22 18:49:20;;;;;;;28.05;16.52;;;;;;;6.37;74.20;101060.90;2839764;84;21012;-71